Time;durP1;ratioP1;P1;durP2;ratioP2;P2;SDS_P1;SDS_P2;PMS_P1;PMS_P2;Temp;Humidity;BMP_temperature;BMP_pressure;BME280_temperature;BME280_humidity;BME280_pressure;Samples;Min_cycle;Max_cycle;Signal;HPM_P1;HPM_P2
2020/12/27 00:03:47;;;;;;;11.13;5.00;;;;;;;;;;10323398;28;20055;-59
2020/12/27 00:08:44;;;;;;;5.77;4.77;;;;;;;;;;10313689;28;20044;-59
2020/12/27 00:13:41;;;;;;;5.23;4.70;;;;;;;;;;10279291;28;21824;-60
2020/12/27 00:18:39;;;;;;;8.97;4.97;;;;;;;;;;10271504;28;20045;-59
2020/12/27 00:23:36;;;;;;;6.70;5.40;;;;;;;;;;10275404;28;20039;-61
2020/12/27 00:28:33;;;;;;;6.73;5.30;;;;;;;;;;10304658;28;20229;-61
2020/12/27 00:33:32;;;;;;;7.07;5.40;;;;;;;;;;10288593;28;20509;-61
2020/12/27 00:38:29;;;;;;;8.85;6.40;;;;;;;;;;10283057;28;20041;-60
2020/12/27 00:43:26;;;;;;;6.77;5.70;;;;;;;;;;10284415;28;20036;-60
2020/12/27 00:48:24;;;;;;;6.50;5.73;;;;;;;;;;10277907;28;20524;-55
2020/12/27 00:53:21;;;;;;;6.97;6.27;;;;;;;;;;10286824;28;20060;-56
2020/12/27 00:58:19;;;;;;;8.93;5.93;;;;;;;;;;10336790;28;20525;-55
2020/12/27 01:03:19;;;;;;;10.63;7.10;;;;;;;;;;10279308;28;20423;-59
2020/12/27 01:08:40;;;;;;;8.70;6.68;;;;;;;;;;10327331;28;20044;-57
2020/12/27 01:13:39;;;;;;;7.18;6.32;;;;;;;;;;10312109;28;20381;-58
2020/12/27 01:18:37;;;;;;;10.27;6.32;;;;;;;;;;10331502;28;20048;-57
2020/12/27 01:23:35;;;;;;;11.77;8.93;;;;;;;;;;10357253;28;20517;-57
2020/12/27 01:28:33;;;;;;;8.65;7.43;;;;;;;;;;10339683;28;20258;-55
2020/12/27 01:33:37;;;;;;;13.05;8.27;;;;;;;;;;10323609;28;20029;-59
2020/12/27 01:38:34;;;;;;;9.83;8.30;;;;;;;;;;10320496;28;20117;-60
2020/12/27 01:43:33;;;;;;;10.57;7.10;;;;;;;;;;10331833;28;20033;-58
2020/12/27 01:48:34;;;;;;;8.93;7.65;;;;;;;;;;10331942;28;20098;-58
2020/12/27 01:53:35;;;;;;;12.48;9.05;;;;;;;;;;10323778;28;20429;-57
2020/12/27 01:58:34;;;;;;;10.57;7.35;;;;;;;;;;10298899;28;20042;-58
2020/12/27 02:03:40;;;;;;;8.50;7.18;;;;;;;;;;10276697;28;20073;-60
2020/12/27 02:08:59;;;;;;;7.47;6.32;;;;;;;;;;10329735;28;20106;-61
2020/12/27 02:14:08;;;;;;;8.00;6.72;;;;;;;;;;10324015;28;20434;-61
2020/12/27 02:19:12;;;;;;;8.63;6.53;;;;;;;;;;10281502;28;20029;-61
2020/12/27 02:24:12;;;;;;;8.48;5.05;;;;;;;;;;10280576;28;20087;-59
2020/12/27 02:29:10;;;;;;;5.57;4.27;;;;;;;;;;10276717;28;20554;-56
2020/12/27 02:34:08;;;;;;;;;;;;;;;;;;10311216;28;20506;-60
2020/12/27 02:39:13;;;;;;;5.95;4.57;;;;;;;;;;10325819;28;20298;-57
2020/12/27 02:44:11;;;;;;;5.30;4.20;;;;;;;;;;10322259;28;20678;-59
2020/12/27 02:49:34;;;;;;;4.47;3.13;;;;;;;;;;10303494;28;20033;-59
2020/12/27 02:54:35;;;;;;;5.82;3.80;;;;;;;;;;10313255;28;20033;-55
2020/12/27 02:59:39;;;;;;;5.57;3.45;;;;;;;;;;10272993;28;20041;-57
2020/12/27 03:04:57;;;;;;;3.90;3.00;;;;;;;;;;10332948;28;20043;-59
2020/12/27 03:09:54;;;;;;;3.97;3.03;;;;;;;;;;10336041;28;20044;-58
2020/12/27 03:15:01;;;;;;;3.00;2.80;;;;;;;;;;10319091;28;21012;-55
2020/12/27 03:20:16;;;;;;;3.17;2.88;;;;;;;;;;10289641;28;20037;-57
2020/12/27 03:25:29;;;;;;;4.13;2.50;;;;;;;;;;10293673;28;20160;-62
2020/12/27 03:30:27;;;;;;;2.97;2.77;;;;;;;;;;10327637;28;20746;-60
2020/12/27 03:35:27;;;;;;;2.92;2.65;;;;;;;;;;10331834;28;20282;-59
2020/12/27 03:40:24;;;;;;;4.05;2.67;;;;;;;;;;10334463;28;20033;-56
2020/12/27 03:45:41;;;;;;;4.30;2.85;;;;;;;;;;10299710;28;20034;-60
2020/12/27 03:50:57;;;;;;;3.65;2.55;;;;;;;;;;10278192;28;20124;-58
2020/12/27 03:55:55;;;;;;;2.85;1.55;;;;;;;;;;10296854;28;20026;-59
2020/12/27 04:01:29;;;;;;;2.33;2.13;;;;;;;;;;10266584;28;20124;-60
2020/12/27 04:06:27;;;;;;;4.30;1.83;;;;;;;;;;10281578;28;20521;-57
2020/12/27 04:11:38;;;;;;;2.20;2.00;;;;;;;;;;10278397;28;20036;-55
2020/12/27 04:16:37;;;;;;;2.70;1.77;;;;;;;;;;10297307;28;20033;-55
2020/12/27 04:21:37;;;;;;;3.88;2.28;;;;;;;;;;10291989;28;20029;-56
2020/12/27 04:26:42;;;;;;;2.22;1.98;;;;;;;;;;10302466;28;20523;-55
2020/12/27 04:31:41;;;;;;;2.58;1.92;;;;;;;;;;10286512;28;20199;-60
2020/12/27 04:36:54;;;;;;;2.42;1.58;;;;;;;;;;10293459;28;20088;-60
2020/12/27 04:41:57;;;;;;;2.25;2.05;;;;;;;;;;10327219;28;20025;-57
2020/12/27 04:47:02;;;;;;;1.73;1.63;;;;;;;;;;10304443;28;20037;-59
2020/12/27 04:52:18;;;;;;;1.95;1.40;;;;;;;;;;10285825;28;20522;-58
2020/12/27 04:57:34;;;;;;;4.13;1.90;;;;;;;;;;10297156;28;20033;-56
2020/12/27 05:02:33;;;;;;;1.65;1.50;;;;;;;;;;10328175;28;20048;-63
2020/12/27 05:07:31;;;;;;;2.33;1.10;;;;;;;;;;10325412;28;20535;-57
2020/12/27 05:12:47;;;;;;;1.77;1.42;;;;;;;;;;10297510;28;20034;-56
2020/12/27 05:17:47;;;;;;;1.52;1.42;;;;;;;;;;10325917;28;20033;-54
2020/12/27 05:22:46;;;;;;;3.00;1.58;;;;;;;;;;10297609;28;20044;-60
2020/12/27 05:27:48;;;;;;;2.05;1.58;;;;;;;;;;10312376;28;20033;-57
2020/12/27 05:33:14;;;;;;;5.80;1.88;;;;;;;;;;10281590;28;20029;-60
2020/12/27 05:38:30;;;;;;;1.48;1.38;;;;;;;;;;10297531;28;20045;-56
2020/12/27 05:43:57;;;;;;;3.10;1.40;;;;;;;;;;10324488;28;20560;-57
2020/12/27 05:48:55;;;;;;;1.42;1.20;;;;;;;;;;10334611;28;20036;-59
2020/12/27 05:53:53;;;;;;;1.58;1.23;;;;;;;;;;10297128;28;20484;-54
2020/12/27 05:59:12;;;;;;;2.00;1.50;;;;;;;;;;10285796;28;20112;-53
2020/12/27 06:04:24;;;;;;;2.10;1.50;;;;;;;;;;10297912;28;20021;-58
2020/12/27 06:09:40;;;;;;;1.40;1.30;;;;;;;;;;10321956;28;20036;-64
2020/12/27 06:14:39;;;;;;;6.45;1.48;;;;;;;;;;10320978;28;20035;-62
2020/12/27 06:19:59;;;;;;;1.90;1.10;;;;;;;;;;10331545;28;20049;-58
2020/12/27 06:25:02;;;;;;;1.20;1.10;;;;;;;;;;10324067;28;20059;-59
2020/12/27 06:30:31;;;;;;;2.40;1.42;;;;;;;;;;10303390;28;20040;-57
2020/12/27 06:35:47;;;;;;;1.33;1.17;;;;;;;;;;10286731;28;20491;-56
2020/12/27 06:40:47;;;;;;;4.10;1.27;;;;;;;;;;10300727;28;20033;-65
2020/12/27 06:46:16;;;;;;;1.88;1.35;;;;;;;;;;10299737;28;20507;-54
2020/12/27 06:51:35;;;;;;;1.42;1.33;;;;;;;;;;10307303;28;20933;-56
2020/12/27 06:56:37;;;;;;;1.45;1.35;;;;;;;;;;10288508;28;20083;-61
2020/12/27 07:02:04;;;;;;;1.60;1.35;;;;;;;;;;10316924;28;20041;-58
2020/12/27 07:07:01;;;;;;;1.25;1.02;;;;;;;;;;10326449;28;20364;-57
2020/12/27 07:12:02;;;;;;;1.73;1.40;;;;;;;;;;10315090;28;20045;-60
2020/12/27 07:17:04;;;;;;;1.27;1.17;;;;;;;;;;10322597;28;21096;-57
2020/12/27 07:22:06;;;;;;;1.75;1.58;;;;;;;;;;10303869;28;20133;-58
2020/12/27 07:27:04;;;;;;;2.17;0.90;;;;;;;;;;10303681;28;20029;-60
2020/12/27 07:32:01;;;;;;;1.60;1.30;;;;;;;;;;10285270;28;20067;-58
2020/12/27 07:37:03;;;;;;;1.40;1.30;;;;;;;;;;10293430;28;20041;-57
2020/12/27 07:42:00;;;;;;;1.48;1.27;;;;;;;;;;10313826;28;20029;-58
2020/12/27 07:47:04;;;;;;;2.37;1.40;;;;;;;;;;10299421;28;20033;-55
2020/12/27 07:52:02;;;;;;;1.33;1.23;;;;;;;;;;10285740;28;20349;-54
2020/12/27 07:56:59;;;;;;;1.83;1.47;;;;;;;;;;10301955;28;20138;-56
2020/12/27 08:01:57;;;;;;;3.63;1.50;;;;;;;;;;10316660;28;20029;-59
2020/12/27 08:06:54;;;;;;;1.10;1.10;;;;;;;;;;10326179;28;20487;-57
2020/12/27 08:11:52;;;;;;;1.10;1.10;;;;;;;;;;10307532;28;20594;-57
2020/12/27 08:16:49;;;;;;;1.67;1.20;;;;;;;;;;10323946;28;20041;-61
2020/12/27 08:21:47;;;;;;;1.07;0.97;;;;;;;;;;10319568;28;20041;-57
2020/12/27 08:26:46;;;;;;;1.58;1.33;;;;;;;;;;10328613;28;20025;-54
2020/12/27 08:31:45;;;;;;;1.17;1.13;;;;;;;;;;10327375;28;20511;-57
2020/12/27 08:36:42;;;;;;;;;;;;;;;;;;10301516;28;20706;-58
2020/12/27 08:41:41;;;;;;;1.00;1.00;;;;;;;;;;10307886;28;19909;-60
2020/12/27 08:46:40;;;;;;;1.00;1.00;;;;;;;;;;10320350;28;20040;-58
2020/12/27 08:51:40;;;;;;;1.20;1.08;;;;;;;;;;10321460;28;20044;-60
2020/12/27 08:56:37;;;;;;;1.25;1.02;;;;;;;;;;10314763;28;20479;-58
2020/12/27 09:01:34;;;;;;;1.10;1.00;;;;;;;;;;10334422;28;20029;-60
2020/12/27 09:06:33;;;;;;;1.10;1.00;;;;;;;;;;10307903;28;20124;-61
2020/12/27 09:11:44;;;;;;;2.63;0.98;;;;;;;;;;10301060;28;20306;-59
2020/12/27 09:16:41;;;;;;;2.28;1.27;;;;;;;;;;10307066;28;21994;-57
2020/12/27 09:21:41;;;;;;;2.10;1.30;;;;;;;;;;10290518;28;20439;-62
2020/12/27 09:26:39;;;;;;;1.98;1.42;;;;;;;;;;10288852;28;20033;-59
2020/12/27 09:31:36;;;;;;;1.13;1.00;;;;;;;;;;10307089;28;20036;-56
2020/12/27 09:36:34;;;;;;;1.50;1.40;;;;;;;;;;10307434;28;20041;-59
2020/12/27 09:41:36;;;;;;;1.37;1.27;;;;;;;;;;10289612;28;20120;-57
2020/12/27 09:46:39;;;;;;;2.03;0.98;;;;;;;;;;10276450;28;20550;-54
2020/12/27 09:51:37;;;;;;;1.45;1.35;;;;;;;;;;10307676;28;20158;-57
2020/12/27 09:56:44;;;;;;;1.20;1.10;;;;;;;;;;10309838;28;20083;-61
2020/12/27 10:01:41;;;;;;;1.73;1.20;;;;;;;;;;10298816;28;20048;-56
2020/12/27 10:06:38;;;;;;;1.27;1.23;;;;;;;;;;10318263;28;20045;-54
2020/12/27 10:11:36;;;;;;;1.73;1.20;;;;;;;;;;10324906;28;20520;-60
2020/12/27 10:16:33;;;;;;;0.87;0.87;;;;;;;;;;10323459;28;20044;-60
2020/12/27 10:21:31;;;;;;;1.37;1.27;;;;;;;;;;10305145;28;20033;-56
2020/12/27 10:26:28;;;;;;;1.17;1.00;;;;;;;;;;10308793;28;20043;-60
2020/12/27 10:31:25;;;;;;;1.00;1.00;;;;;;;;;;10313617;28;20048;-58
2020/12/27 10:36:23;;;;;;;2.63;1.00;;;;;;;;;;10313124;28;20037;-59
2020/12/27 10:41:21;;;;;;;1.02;1.02;;;;;;;;;;10331890;28;20128;-60
2020/12/27 10:46:19;;;;;;;1.00;1.00;;;;;;;;;;10317618;28;20559;-60
2020/12/27 10:51:16;;;;;;;1.43;1.10;;;;;;;;;;10309402;28;20041;-57
2020/12/27 10:56:14;;;;;;;2.53;1.37;;;;;;;;;;10305689;28;20454;-60
2020/12/27 11:01:11;;;;;;;2.23;0.97;;;;;;;;;;10257282;28;20116;-58
2020/12/27 11:06:08;;;;;;;1.60;1.20;;;;;;;;;;10283709;28;20400;-58
2020/12/27 11:11:06;;;;;;;1.10;0.90;;;;;;;;;;10279303;28;20389;-55
2020/12/27 11:16:03;;;;;;;2.10;1.30;;;;;;;;;;10273923;28;20037;-60
2020/12/27 11:21:01;;;;;;;0.87;0.77;;;;;;;;;;10271642;28;20042;-57
2020/12/27 11:25:58;;;;;;;1.20;1.10;;;;;;;;;;10266370;28;20388;-56
2020/12/27 11:30:55;;;;;;;3.23;1.60;;;;;;;;;;10299561;28;20032;-60
2020/12/27 11:35:53;;;;;;;0.80;0.80;;;;;;;;;;10307192;28;20456;-55
2020/12/27 11:40:50;;;;;;;2.77;1.27;;;;;;;;;;10330869;28;20044;-56
2020/12/27 11:45:47;;;;;;;1.40;0.80;;;;;;;;;;10313410;28;20556;-59
2020/12/27 11:50:45;;;;;;;1.10;0.80;;;;;;;;;;10330228;28;20041;-58
2020/12/27 11:55:43;;;;;;;1.70;1.07;;;;;;;;;;10317828;28;20517;-63
2020/12/27 12:00:41;;;;;;;2.47;1.35;;;;;;;;;;10296897;28;20207;-58
2020/12/27 12:05:38;;;;;;;1.40;0.87;;;;;;;;;;10285936;28;20146;-58
2020/12/27 12:10:35;;;;;;;2.77;1.90;;;;;;;;;;10322001;28;20033;-59
2020/12/27 12:15:33;;;;;;;1.33;1.00;;;;;;;;;;10313942;28;20107;-60
2020/12/27 12:20:45;;;;;;;1.40;1.20;;;;;;;;;;10307494;28;20048;-57
2020/12/27 12:25:45;;;;;;;1.65;1.27;;;;;;;;;;10283571;28;20522;-61
2020/12/27 12:30:44;;;;;;;0.80;0.80;;;;;;;;;;10275359;28;20144;-61
2020/12/27 12:35:41;;;;;;;1.85;0.98;;;;;;;;;;10288732;28;20045;-61
2020/12/27 12:40:39;;;;;;;0.93;0.93;;;;;;;;;;10290161;28;20037;-61
2020/12/27 12:45:37;;;;;;;2.40;1.30;;;;;;;;;;10298369;28;20037;-60
2020/12/27 12:50:34;;;;;;;1.13;1.07;;;;;;;;;;10285486;28;20080;-59
2020/12/27 12:55:31;;;;;;;1.40;0.80;;;;;;;;;;10301546;28;20411;-60
2020/12/27 13:00:29;;;;;;;1.10;0.97;;;;;;;;;;10327513;28;20127;-55
2020/12/27 13:05:26;;;;;;;1.67;1.37;;;;;;;;;;10325432;28;20053;-60
2020/12/27 13:10:24;;;;;;;2.90;1.47;;;;;;;;;;10313434;28;20080;-56
2020/12/27 13:15:21;;;;;;;2.80;2.43;;;;;;;;;;10311225;28;20078;-60
2020/12/27 13:20:18;;;;;;;3.20;2.00;;;;;;;;;;10333015;28;20064;-60
2020/12/27 13:25:16;;;;;;;1.57;1.47;;;;;;;;;;10287791;28;20446;-60
2020/12/27 13:30:14;;;;;;;2.23;1.70;;;;;;;;;;10304570;28;20131;-60
2020/12/27 13:35:11;;;;;;;1.67;1.50;;;;;;;;;;10274954;28;20938;-61
2020/12/27 13:40:09;;;;;;;3.83;1.40;;;;;;;;;;10244494;28;20508;-58
2020/12/27 13:45:06;;;;;;;2.93;1.60;;;;;;;;;;10287720;28;20124;-59
2020/12/27 13:50:04;;;;;;;1.60;1.43;;;;;;;;;;10288221;28;20037;-59
2020/12/27 13:55:01;;;;;;;1.97;1.63;;;;;;;;;;10289271;28;20048;-56
2020/12/27 13:59:58;;;;;;;2.10;1.90;;;;;;;;;;10274248;28;20064;-56
2020/12/27 14:04:56;;;;;;;2.30;1.87;;;;;;;;;;10286469;28;20082;-54
2020/12/27 14:09:53;;;;;;;3.80;2.00;;;;;;;;;;10269876;28;20578;-59
2020/12/27 14:14:51;;;;;;;2.63;1.50;;;;;;;;;;10279443;28;20037;-58
2020/12/27 14:19:48;;;;;;;2.83;1.70;;;;;;;;;;10291491;28;20546;-60
2020/12/27 14:24:46;;;;;;;1.80;1.53;;;;;;;;;;10270700;28;20038;-57
2020/12/27 14:29:43;;;;;;;2.00;1.40;;;;;;;;;;10272408;28;20070;-57
2020/12/27 14:34:40;;;;;;;2.60;1.40;;;;;;;;;;10309182;28;20749;-56
2020/12/27 14:39:38;;;;;;;2.07;1.17;;;;;;;;;;10292995;28;20120;-56
2020/12/27 14:44:35;;;;;;;1.90;1.33;;;;;;;;;;10266831;28;20034;-58
2020/12/27 14:49:33;;;;;;;1.47;1.37;;;;;;;;;;10284817;28;20167;-56
2020/12/27 14:54:31;;;;;;;2.05;1.45;;;;;;;;;;10294960;28;20491;-60
2020/12/27 14:59:28;;;;;;;2.07;1.27;;;;;;;;;;10321632;28;20029;-60
2020/12/27 15:04:25;;;;;;;2.53;1.43;;;;;;;;;;10258445;28;20066;-62
2020/12/27 15:09:23;;;;;;;1.90;1.67;;;;;;;;;;10282541;28;20067;-58
2020/12/27 15:14:20;;;;;;;1.43;1.30;;;;;;;;;;10278148;28;20042;-58
2020/12/27 15:19:18;;;;;;;1.50;1.23;;;;;;;;;;10311499;28;20051;-57
2020/12/27 15:24:15;;;;;;;0.90;0.90;;;;;;;;;;10273168;28;20096;-62
2020/12/27 15:29:12;;;;;;;1.50;1.40;;;;;;;;;;10315921;28;20615;-60
2020/12/27 15:34:10;;;;;;;1.63;1.03;;;;;;;;;;10285271;28;20578;-60
2020/12/27 15:39:07;;;;;;;2.07;1.20;;;;;;;;;;10273132;28;20071;-60
2020/12/27 15:44:05;;;;;;;1.67;1.40;;;;;;;;;;10261783;28;20055;-61
2020/12/27 15:49:02;;;;;;;2.57;1.70;;;;;;;;;;10263875;28;20494;-60
2020/12/27 15:54:00;;;;;;;1.57;1.47;;;;;;;;;;10249924;28;20033;-60
2020/12/27 15:59:00;;;;;;;3.20;1.50;;;;;;;;;;10243262;28;20053;-64
2020/12/27 16:03:58;;;;;;;1.73;1.20;;;;;;;;;;10267089;28;20053;-62
2020/12/27 16:08:56;;;;;;;1.50;1.40;;;;;;;;;;10262807;28;20440;-60
2020/12/27 16:13:54;;;;;;;1.38;1.25;;;;;;;;;;10322537;28;20287;-60
2020/12/27 16:18:52;;;;;;;1.30;1.20;;;;;;;;;;10269653;28;20045;-66
2020/12/27 16:23:50;;;;;;;3.35;1.63;;;;;;;;;;10312321;28;20038;-58
2020/12/27 16:28:47;;;;;;;1.63;1.52;;;;;;;;;;10316448;28;20029;-61
2020/12/27 16:33:45;;;;;;;2.77;2.43;;;;;;;;;;10313915;28;20060;-60
2020/12/27 16:38:43;;;;;;;1.92;1.73;;;;;;;;;;10321827;28;20041;-56
2020/12/27 16:43:40;;;;;;;1.10;1.10;;;;;;;;;;10311092;28;20069;-60
2020/12/27 16:48:38;;;;;;;2.20;1.67;;;;;;;;;;10306373;28;20041;-57
2020/12/27 16:53:39;;;;;;;1.13;1.02;;;;;;;;;;10283779;28;20037;-57
2020/12/27 16:58:37;;;;;;;1.67;1.33;;;;;;;;;;10275716;28;20030;-60
2020/12/27 17:03:34;;;;;;;2.25;1.50;;;;;;;;;;10271014;28;20044;-60
2020/12/27 17:08:31;;;;;;;1.60;1.17;;;;;;;;;;10277770;28;20037;-58
2020/12/27 17:13:29;;;;;;;1.37;1.27;;;;;;;;;;10271088;28;20028;-59
2020/12/27 17:18:28;;;;;;;2.17;1.37;;;;;;;;;;10237230;28;20040;-59
2020/12/27 17:23:26;;;;;;;2.00;1.77;;;;;;;;;;10286301;28;20040;-60
2020/12/27 17:28:23;;;;;;;1.33;1.20;;;;;;;;;;10280911;28;20041;-55
2020/12/27 17:33:20;;;;;;;1.93;1.80;;;;;;;;;;10286436;28;20124;-60
2020/12/27 17:38:18;;;;;;;1.57;1.47;;;;;;;;;;10312669;28;20033;-55
2020/12/27 17:43:15;;;;;;;1.63;1.50;;;;;;;;;;10296340;28;20073;-59
2020/12/27 17:48:12;;;;;;;1.27;1.23;;;;;;;;;;10261978;28;20866;-57
2020/12/27 17:53:11;;;;;;;1.60;1.50;;;;;;;;;;10276927;28;20037;-58
2020/12/27 17:58:08;;;;;;;1.65;1.55;;;;;;;;;;10299465;28;20052;-55
2020/12/27 18:03:08;;;;;;;1.50;1.40;;;;;;;;;;10276579;28;20041;-61
2020/12/27 18:08:05;;;;;;;1.60;1.40;;;;;;;;;;10280220;28;20102;-55
2020/12/27 18:13:03;;;;;;;1.63;1.47;;;;;;;;;;10291498;28;20045;-58
2020/12/27 18:18:00;;;;;;;1.77;1.30;;;;;;;;;;10274121;28;20120;-56
2020/12/27 18:22:57;;;;;;;3.03;1.20;;;;;;;;;;10283267;28;20079;-58
2020/12/27 18:27:55;;;;;;;1.23;1.13;;;;;;;;;;10283058;28;20053;-60
2020/12/27 18:32:52;;;;;;;1.73;1.40;;;;;;;;;;10269419;28;20037;-61
2020/12/27 18:37:50;;;;;;;1.30;1.30;;;;;;;;;;10274988;28;20037;-58
2020/12/27 18:42:47;;;;;;;1.67;1.40;;;;;;;;;;10265505;28;20048;-54
2020/12/27 18:47:44;;;;;;;3.10;1.10;;;;;;;;;;10274101;28;20076;-60
2020/12/27 18:52:42;;;;;;;2.97;1.50;;;;;;;;;;10279876;28;20480;-60
2020/12/27 18:57:39;;;;;;;1.60;1.40;;;;;;;;;;10291937;28;20037;-58
2020/12/27 19:02:37;;;;;;;1.90;1.00;;;;;;;;;;10277832;28;20499;-63
2020/12/27 19:07:34;;;;;;;5.57;1.60;;;;;;;;;;10299909;28;20674;-57
2020/12/27 19:12:32;;;;;;;1.47;1.37;;;;;;;;;;10283695;28;20487;-56
2020/12/27 19:17:29;;;;;;;1.43;1.17;;;;;;;;;;10302109;28;20039;-53
2020/12/27 19:22:26;;;;;;;3.50;1.70;;;;;;;;;;10299603;28;20040;-55
2020/12/27 19:27:24;;;;;;;1.73;1.60;;;;;;;;;;10282127;28;20041;-62
2020/12/27 19:32:21;;;;;;;1.43;1.33;;;;;;;;;;10275130;28;20499;-59
2020/12/27 19:37:19;;;;;;;2.20;1.90;;;;;;;;;;10243862;28;1195566;-55
2020/12/27 19:42:17;;;;;;;1.30;1.17;;;;;;;;;;10281894;28;20145;-55
2020/12/27 19:47:14;;;;;;;3.30;1.70;;;;;;;;;;10281130;28;20527;-54
2020/12/27 19:52:12;;;;;;;1.37;1.30;;;;;;;;;;10303614;28;20041;-60
2020/12/27 19:57:10;;;;;;;1.60;1.50;;;;;;;;;;10315188;28;20081;-56
2020/12/27 20:02:07;;;;;;;3.37;1.43;;;;;;;;;;10290973;28;20032;-56
2020/12/27 20:07:05;;;;;;;1.37;1.17;;;;;;;;;;10316876;28;20037;-54
2020/12/27 20:12:02;;;;;;;1.50;1.40;;;;;;;;;;10305968;28;20045;-63
2020/12/27 20:17:00;;;;;;;2.20;1.67;;;;;;;;;;10299582;28;20037;-53
2020/12/27 20:21:57;;;;;;;4.33;1.73;;;;;;;;;;10330717;28;20506;-61
2020/12/27 20:26:55;;;;;;;1.50;1.40;;;;;;;;;;10321212;28;20051;-56
2020/12/27 20:31:52;;;;;;;2.40;1.70;;;;;;;;;;10277272;28;20041;-60
2020/12/27 20:36:50;;;;;;;2.23;2.03;;;;;;;;;;10261912;28;20056;-61
2020/12/27 20:41:47;;;;;;;2.00;1.80;;;;;;;;;;10277015;28;20033;-56
2020/12/27 20:46:46;;;;;;;3.43;1.80;;;;;;;;;;10261721;28;20815;-57
2020/12/27 20:51:44;;;;;;;2.53;1.75;;;;;;;;;;10273001;28;20049;-60
2020/12/27 20:56:43;;;;;;;1.57;1.47;;;;;;;;;;10306889;28;20064;-56
2020/12/27 21:01:40;;;;;;;2.30;1.80;;;;;;;;;;10290099;28;20092;-54
2020/12/27 21:06:38;;;;;;;2.37;2.07;;;;;;;;;;10285562;28;20049;-60
2020/12/27 21:11:35;;;;;;;2.23;1.87;;;;;;;;;;10283013;28;20037;-58
2020/12/27 21:16:32;;;;;;;2.23;1.80;;;;;;;;;;10306909;28;20041;-53
2020/12/27 21:21:30;;;;;;;2.17;1.80;;;;;;;;;;10293011;28;20033;-59
2020/12/27 21:26:27;;;;;;;1.80;1.70;;;;;;;;;;10274916;28;20046;-56
2020/12/27 21:31:25;;;;;;;2.00;1.80;;;;;;;;;;10268320;28;20065;-58
2020/12/27 21:36:22;;;;;;;2.37;1.70;;;;;;;;;;10271495;28;20043;-59
2020/12/27 21:41:19;;;;;;;2.37;1.60;;;;;;;;;;10309332;28;20509;-55
2020/12/27 21:46:17;;;;;;;2.23;2.00;;;;;;;;;;10291933;28;20122;-60
2020/12/27 21:51:14;;;;;;;3.17;1.87;;;;;;;;;;10306527;28;20688;-56
2020/12/27 21:56:12;;;;;;;2.73;2.03;;;;;;;;;;10274393;28;20934;-53
2020/12/27 22:01:09;;;;;;;2.93;2.10;;;;;;;;;;10296402;28;20731;-56
2020/12/27 22:06:07;;;;;;;2.57;2.13;;;;;;;;;;10306168;28;20033;-64
2020/12/27 22:11:08;;;;;;;2.47;1.95;;;;;;;;;;10268759;28;20037;-60
2020/12/27 22:16:05;;;;;;;1.60;1.40;;;;;;;;;;10296537;28;20045;-60
2020/12/27 22:21:05;;;;;;;1.87;1.70;;;;;;;;;;10260354;28;20068;-58
2020/12/27 22:26:02;;;;;;;2.10;1.63;;;;;;;;;;10277243;28;20136;-57
2020/12/27 22:31:00;;;;;;;1.80;1.70;;;;;;;;;;10279507;28;20128;-61
2020/12/27 22:35:58;;;;;;;2.10;1.58;;;;;;;;;;10277552;28;20038;-57
2020/12/27 22:40:55;;;;;;;1.50;1.40;;;;;;;;;;10297177;28;20399;-59
2020/12/27 22:45:53;;;;;;;1.00;1.00;;;;;;;;;;10328491;28;20037;-60
2020/12/27 22:50:50;;;;;;;1.43;1.30;;;;;;;;;;10301285;28;20041;-60
2020/12/27 22:55:48;;;;;;;1.47;1.37;;;;;;;;;;10318800;28;20052;-57
2020/12/27 23:00:45;;;;;;;1.10;1.10;;;;;;;;;;10269916;28;20510;-61
2020/12/27 23:05:43;;;;;;;1.63;1.35;;;;;;;;;;10311816;28;20568;-56
2020/12/27 23:10:40;;;;;;;1.37;1.00;;;;;;;;;;10301008;28;20052;-60
2020/12/27 23:15:38;;;;;;;1.60;1.37;;;;;;;;;;10309619;28;20499;-59
2020/12/27 23:20:35;;;;;;;1.60;1.40;;;;;;;;;;10307363;28;20037;-57
2020/12/27 23:25:33;;;;;;;1.50;1.40;;;;;;;;;;10276382;28;20044;-59
2020/12/27 23:30:31;;;;;;;1.57;1.27;;;;;;;;;;10288963;28;20049;-56
2020/12/27 23:35:28;;;;;;;1.63;1.52;;;;;;;;;;10270150;28;20428;-59
2020/12/27 23:40:27;;;;;;;2.97;1.77;;;;;;;;;;10264445;28;20033;-56
2020/12/27 23:45:24;;;;;;;;;;;;;;;;;;10281495;28;20037;-57
2020/12/27 23:50:32;;;;;;;1.80;1.70;;;;;;;;;;10280709;28;19923;-64
2020/12/27 23:55:30;;;;;;;2.05;1.48;;;;;;;;;;10266251;28;20295;-57
